sensor_id;sensor_type;location;lat;lon;timestamp;P1;durP1;ratioP1;P2;durP2;ratioP2
9698;SDS011;10089;47.876;8.346;2023-05-02T00:00:15;6.25;;;5.65;;
9698;SDS011;10089;47.876;8.346;2023-05-02T00:02:41;9.68;;;6.80;;
9698;SDS011;10089;47.876;8.346;2023-05-02T00:05:07;9.55;;;6.60;;
9698;SDS011;10089;47.876;8.346;2023-05-02T00:07:33;9.25;;;6.18;;
9698;SDS011;10089;47.876;8.346;2023-05-02T00:09:59;10.82;;;7.07;;
9698;SDS011;10089;47.876;8.346;2023-05-02T00:12:27;7.38;;;6.53;;
9698;SDS011;10089;47.876;8.346;2023-05-02T00:14:52;9.23;;;6.55;;
9698;SDS011;10089;47.876;8.346;2023-05-02T00:17:19;8.77;;;6.63;;
9698;SDS011;10089;47.876;8.346;2023-05-02T00:19:45;10.15;;;6.63;;
9698;SDS011;10089;47.876;8.346;2023-05-02T00:22:11;6.97;;;5.68;;
9698;SDS011;10089;47.876;8.346;2023-05-02T00:24:37;6.55;;;5.93;;
9698;SDS011;10089;47.876;8.346;2023-05-02T00:27:03;7.05;;;6.15;;
9698;SDS011;10089;47.876;8.346;2023-05-02T00:29:30;6.45;;;5.85;;
9698;SDS011;10089;47.876;8.346;2023-05-02T00:31:56;8.45;;;6.43;;
9698;SDS011;10089;47.876;8.346;2023-05-02T00:34:28;7.10;;;6.38;;
9698;SDS011;10089;47.876;8.346;2023-05-02T00:36:55;6.40;;;5.50;;
9698;SDS011;10089;47.876;8.346;2023-05-02T00:39:21;7.00;;;5.93;;
9698;SDS011;10089;47.876;8.346;2023-05-02T00:41:47;7.90;;;5.57;;
9698;SDS011;10089;47.876;8.346;2023-05-02T00:44:13;6.35;;;5.55;;
9698;SDS011;10089;47.876;8.346;2023-05-02T00:46:38;6.97;;;5.38;;
9698;SDS011;10089;47.876;8.346;2023-05-02T00:49:04;5.57;;;5.07;;
9698;SDS011;10089;47.876;8.346;2023-05-02T00:51:32;8.40;;;5.43;;
9698;SDS011;10089;47.876;8.346;2023-05-02T00:53:59;7.22;;;5.47;;
9698;SDS011;10089;47.876;8.346;2023-05-02T00:56:25;5.68;;;5.13;;
9698;SDS011;10089;47.876;8.346;2023-05-02T00:58:51;6.90;;;4.80;;
9698;SDS011;10089;47.876;8.346;2023-05-02T01:01:32;7.90;;;5.00;;
9698;SDS011;10089;47.876;8.346;2023-05-02T01:04:14;9.68;;;5.13;;
9698;SDS011;10089;47.876;8.346;2023-05-02T01:15:16;10.20;;;5.72;;
9698;SDS011;10089;47.876;8.346;2023-05-02T01:17:44;6.65;;;4.80;;
9698;SDS011;10089;47.876;8.346;2023-05-02T01:20:12;5.13;;;4.63;;
9698;SDS011;10089;47.876;8.346;2023-05-02T01:22:42;5.75;;;5.15;;
9698;SDS011;10089;47.876;8.346;2023-05-02T01:30:40;7.65;;;5.30;;
9698;SDS011;10089;47.876;8.346;2023-05-02T01:33:10;6.00;;;5.40;;
9698;SDS011;10089;47.876;8.346;2023-05-02T01:35:37;7.90;;;4.93;;
9698;SDS011;10089;47.876;8.346;2023-05-02T01:38:06;5.55;;;4.97;;
9698;SDS011;10089;47.876;8.346;2023-05-02T01:40:33;5.63;;;4.60;;
9698;SDS011;10089;47.876;8.346;2023-05-02T01:43:02;6.82;;;5.35;;
9698;SDS011;10089;47.876;8.346;2023-05-02T01:45:30;5.45;;;4.80;;
9698;SDS011;10089;47.876;8.346;2023-05-02T01:47:58;6.47;;;5.30;;
9698;SDS011;10089;47.876;8.346;2023-05-02T01:50:25;6.07;;;5.47;;
9698;SDS011;10089;47.876;8.346;2023-05-02T01:52:52;5.18;;;4.68;;
9698;SDS011;10089;47.876;8.346;2023-05-02T01:55:19;7.85;;;5.10;;
9698;SDS011;10089;47.876;8.346;2023-05-02T01:57:46;5.82;;;5.03;;
9698;SDS011;10089;47.876;8.346;2023-05-02T02:00:15;7.40;;;5.38;;
9698;SDS011;10089;47.876;8.346;2023-05-02T02:02:42;7.10;;;4.95;;
9698;SDS011;10089;47.876;8.346;2023-05-02T02:05:09;5.10;;;4.60;;
9698;SDS011;10089;47.876;8.346;2023-05-02T02:07:36;7.32;;;4.93;;
9698;SDS011;10089;47.876;8.346;2023-05-02T02:10:03;5.55;;;4.97;;
9698;SDS011;10089;47.876;8.346;2023-05-02T02:12:37;6.50;;;4.72;;
9698;SDS011;10089;47.876;8.346;2023-05-02T02:15:15;5.13;;;4.38;;
9698;SDS011;10089;47.876;8.346;2023-05-02T02:17:50;7.93;;;5.07;;
9698;SDS011;10089;47.876;8.346;2023-05-02T02:20:24;5.32;;;4.82;;
9698;SDS011;10089;47.876;8.346;2023-05-02T02:22:52;7.10;;;4.90;;
9698;SDS011;10089;47.876;8.346;2023-05-02T02:25:20;6.60;;;5.25;;
9698;SDS011;10089;47.876;8.346;2023-05-02T02:27:46;5.43;;;4.68;;
9698;SDS011;10089;47.876;8.346;2023-05-02T02:30:12;5.75;;;5.25;;
9698;SDS011;10089;47.876;8.346;2023-05-02T02:32:40;8.00;;;6.03;;
9698;SDS011;10089;47.876;8.346;2023-05-02T02:35:06;6.95;;;5.35;;
9698;SDS011;10089;47.876;8.346;2023-05-02T02:40:07;7.32;;;5.45;;
9698;SDS011;10089;47.876;8.346;2023-05-02T02:42:54;8.10;;;6.38;;
9698;SDS011;10089;47.876;8.346;2023-05-02T02:45:37;6.38;;;5.78;;
9698;SDS011;10089;47.876;8.346;2023-05-02T02:51:18;5.97;;;5.47;;
9698;SDS011;10089;47.876;8.346;2023-05-02T02:53:59;6.38;;;5.75;;
9698;SDS011;10089;47.876;8.346;2023-05-02T02:56:50;6.40;;;5.80;;
9698;SDS011;10089;47.876;8.346;2023-05-02T02:59:39;8.23;;;6.40;;
9698;SDS011;10089;47.876;8.346;2023-05-02T03:02:12;7.00;;;6.30;;
9698;SDS011;10089;47.876;8.346;2023-05-02T03:04:41;7.60;;;6.72;;
9698;SDS011;10089;47.876;8.346;2023-05-02T03:07:08;7.55;;;6.63;;
9698;SDS011;10089;47.876;8.346;2023-05-02T03:09:44;7.45;;;6.72;;
9698;SDS011;10089;47.876;8.346;2023-05-02T03:12:11;7.07;;;6.35;;
9698;SDS011;10089;47.876;8.346;2023-05-02T03:14:38;7.85;;;7.03;;
9698;SDS011;10089;47.876;8.346;2023-05-02T03:17:04;8.52;;;7.63;;
9698;SDS011;10089;47.876;8.346;2023-05-02T03:19:32;8.48;;;7.57;;
9698;SDS011;10089;47.876;8.346;2023-05-02T03:21:58;9.45;;;7.72;;
9698;SDS011;10089;47.876;8.346;2023-05-02T03:24:24;6.78;;;6.00;;
9698;SDS011;10089;47.876;8.346;2023-05-02T03:26:55;7.63;;;6.25;;
9698;SDS011;10089;47.876;8.346;2023-05-02T03:29:23;6.07;;;5.47;;
9698;SDS011;10089;47.876;8.346;2023-05-02T03:31:49;6.55;;;5.95;;
9698;SDS011;10089;47.876;8.346;2023-05-02T03:34:15;7.50;;;5.65;;
9698;SDS011;10089;47.876;8.346;2023-05-02T03:36:40;7.63;;;6.63;;
9698;SDS011;10089;47.876;8.346;2023-05-02T03:39:06;6.80;;;5.70;;
9698;SDS011;10089;47.876;8.346;2023-05-02T03:41:32;7.72;;;6.38;;
9698;SDS011;10089;47.876;8.346;2023-05-02T03:43:58;9.20;;;6.18;;
9698;SDS011;10089;47.876;8.346;2023-05-02T03:46:23;6.90;;;6.20;;
9698;SDS011;10089;47.876;8.346;2023-05-02T03:48:49;6.88;;;6.18;;
9698;SDS011;10089;47.876;8.346;2023-05-02T03:51:15;6.70;;;5.97;;
9698;SDS011;10089;47.876;8.346;2023-05-02T03:53:41;7.03;;;5.70;;
9698;SDS011;10089;47.876;8.346;2023-05-02T03:56:07;8.85;;;6.30;;
9698;SDS011;10089;47.876;8.346;2023-05-02T03:58:33;10.20;;;7.30;;
9698;SDS011;10089;47.876;8.346;2023-05-02T04:01:02;7.22;;;6.28;;
9698;SDS011;10089;47.876;8.346;2023-05-02T04:03:28;7.85;;;6.55;;
9698;SDS011;10089;47.876;8.346;2023-05-02T04:05:54;8.75;;;6.00;;
9698;SDS011;10089;47.876;8.346;2023-05-02T04:08:19;8.40;;;6.20;;
9698;SDS011;10089;47.876;8.346;2023-05-02T04:10:45;6.32;;;5.72;;
9698;SDS011;10089;47.876;8.346;2023-05-02T04:13:11;8.45;;;6.05;;
9698;SDS011;10089;47.876;8.346;2023-05-02T04:15:37;6.88;;;6.18;;
9698;SDS011;10089;47.876;8.346;2023-05-02T04:18:03;7.05;;;6.15;;
9698;SDS011;10089;47.876;8.346;2023-05-02T04:20:28;6.22;;;5.40;;
9698;SDS011;10089;47.876;8.346;2023-05-02T04:22:54;7.07;;;6.28;;
9698;SDS011;10089;47.876;8.346;2023-05-02T04:25:20;10.00;;;6.22;;
9698;SDS011;10089;47.876;8.346;2023-05-02T04:27:46;8.25;;;6.22;;
9698;SDS011;10089;47.876;8.346;2023-05-02T04:30:12;11.15;;;6.60;;
9698;SDS011;10089;47.876;8.346;2023-05-02T04:32:38;9.35;;;6.47;;
9698;SDS011;10089;47.876;8.346;2023-05-02T04:35:04;7.05;;;5.85;;
9698;SDS011;10089;47.876;8.346;2023-05-02T04:37:30;8.57;;;6.13;;
9698;SDS011;10089;47.876;8.346;2023-05-02T04:39:56;7.13;;;6.40;;
9698;SDS011;10089;47.876;8.346;2023-05-02T04:42:22;9.70;;;6.35;;
9698;SDS011;10089;47.876;8.346;2023-05-02T04:44:48;11.13;;;7.03;;
9698;SDS011;10089;47.876;8.346;2023-05-02T04:47:14;8.82;;;6.60;;
9698;SDS011;10089;47.876;8.346;2023-05-02T04:49:40;7.53;;;6.70;;
9698;SDS011;10089;47.876;8.346;2023-05-02T04:52:07;8.90;;;6.70;;
9698;SDS011;10089;47.876;8.346;2023-05-02T04:54:34;10.73;;;7.55;;
9698;SDS011;10089;47.876;8.346;2023-05-02T04:57:00;9.07;;;7.43;;
9698;SDS011;10089;47.876;8.346;2023-05-02T04:59:30;11.65;;;7.47;;
9698;SDS011;10089;47.876;8.346;2023-05-02T05:01:56;11.60;;;7.40;;
9698;SDS011;10089;47.876;8.346;2023-05-02T05:04:22;10.55;;;9.02;;
9698;SDS011;10089;47.876;8.346;2023-05-02T05:06:48;8.98;;;7.90;;
9698;SDS011;10089;47.876;8.346;2023-05-02T05:09:14;8.82;;;7.93;;
9698;SDS011;10089;47.876;8.346;2023-05-02T05:11:40;14.63;;;8.57;;
9698;SDS011;10089;47.876;8.346;2023-05-02T05:14:10;9.25;;;8.27;;
9698;SDS011;10089;47.876;8.346;2023-05-02T05:16:36;11.73;;;9.45;;
9698;SDS011;10089;47.876;8.346;2023-05-02T05:19:02;10.57;;;9.48;;
9698;SDS011;10089;47.876;8.346;2023-05-02T05:21:28;10.23;;;7.93;;
9698;SDS011;10089;47.876;8.346;2023-05-02T05:23:54;8.32;;;7.53;;
9698;SDS011;10089;47.876;8.346;2023-05-02T05:26:19;9.80;;;7.97;;
9698;SDS011;10089;47.876;8.346;2023-05-02T05:28:46;9.90;;;8.90;;
9698;SDS011;10089;47.876;8.346;2023-05-02T05:31:12;7.93;;;7.03;;
9698;SDS011;10089;47.876;8.346;2023-05-02T05:33:41;11.55;;;8.15;;
9698;SDS011;10089;47.876;8.346;2023-05-02T05:36:08;7.68;;;6.95;;
9698;SDS011;10089;47.876;8.346;2023-05-02T05:38:35;8.15;;;7.20;;
9698;SDS011;10089;47.876;8.346;2023-05-02T05:41:01;8.00;;;6.78;;
9698;SDS011;10089;47.876;8.346;2023-05-02T05:43:29;8.07;;;7.28;;
9698;SDS011;10089;47.876;8.346;2023-05-02T05:45:55;7.35;;;6.50;;
9698;SDS011;10089;47.876;8.346;2023-05-02T05:48:21;8.25;;;6.97;;
9698;SDS011;10089;47.876;8.346;2023-05-02T05:50:47;7.93;;;7.13;;
9698;SDS011;10089;47.876;8.346;2023-05-02T05:53:13;7.63;;;6.93;;
9698;SDS011;10089;47.876;8.346;2023-05-02T05:55:40;10.73;;;6.43;;
9698;SDS011;10089;47.876;8.346;2023-05-02T05:58:06;6.95;;;6.25;;
9698;SDS011;10089;47.876;8.346;2023-05-02T06:00:36;8.80;;;6.93;;
9698;SDS011;10089;47.876;8.346;2023-05-02T06:03:02;7.40;;;6.70;;
9698;SDS011;10089;47.876;8.346;2023-05-02T06:05:29;7.68;;;6.97;;
9698;SDS011;10089;47.876;8.346;2023-05-02T06:07:55;9.20;;;7.03;;
9698;SDS011;10089;47.876;8.346;2023-05-02T06:10:21;9.85;;;7.05;;
9698;SDS011;10089;47.876;8.346;2023-05-02T06:12:47;7.15;;;6.43;;
9698;SDS011;10089;47.876;8.346;2023-05-02T06:15:13;9.55;;;6.78;;
9698;SDS011;10089;47.876;8.346;2023-05-02T06:17:39;8.90;;;6.90;;
9698;SDS011;10089;47.876;8.346;2023-05-02T06:20:05;7.68;;;6.10;;
9698;SDS011;10089;47.876;8.346;2023-05-02T06:22:31;9.02;;;6.95;;
9698;SDS011;10089;47.876;8.346;2023-05-02T06:24:57;7.25;;;6.50;;
9698;SDS011;10089;47.876;8.346;2023-05-02T06:27:24;7.60;;;6.80;;
9698;SDS011;10089;47.876;8.346;2023-05-02T06:29:50;6.57;;;5.97;;
9698;SDS011;10089;47.876;8.346;2023-05-02T06:32:16;7.20;;;6.50;;
9698;SDS011;10089;47.876;8.346;2023-05-02T06:34:42;6.68;;;5.72;;
9698;SDS011;10089;47.876;8.346;2023-05-02T06:37:08;8.05;;;6.03;;
9698;SDS011;10089;47.876;8.346;2023-05-02T06:39:35;6.32;;;5.53;;
9698;SDS011;10089;47.876;8.346;2023-05-02T06:42:01;6.32;;;5.72;;
9698;SDS011;10089;47.876;8.346;2023-05-02T06:44:27;6.82;;;6.13;;
9698;SDS011;10089;47.876;8.346;2023-05-02T06:46:53;8.85;;;6.57;;
9698;SDS011;10089;47.876;8.346;2023-05-02T06:49:21;8.52;;;6.13;;
9698;SDS011;10089;47.876;8.346;2023-05-02T06:51:47;6.88;;;5.85;;
9698;SDS011;10089;47.876;8.346;2023-05-02T06:54:19;7.38;;;6.43;;
9698;SDS011;10089;47.876;8.346;2023-05-02T06:56:45;7.32;;;6.63;;
9698;SDS011;10089;47.876;8.346;2023-05-02T06:59:11;8.57;;;6.32;;
9698;SDS011;10089;47.876;8.346;2023-05-02T07:01:37;7.20;;;6.50;;
9698;SDS011;10089;47.876;8.346;2023-05-02T07:04:03;6.55;;;5.95;;
9698;SDS011;10089;47.876;8.346;2023-05-02T07:06:30;6.65;;;5.88;;
9698;SDS011;10089;47.876;8.346;2023-05-02T07:08:56;7.63;;;5.82;;
9698;SDS011;10089;47.876;8.346;2023-05-02T07:11:22;5.57;;;4.97;;
9698;SDS011;10089;47.876;8.346;2023-05-02T07:13:48;6.05;;;5.43;;
9698;SDS011;10089;47.876;8.346;2023-05-02T07:16:14;5.75;;;5.10;;
9698;SDS011;10089;47.876;8.346;2023-05-02T07:18:40;5.60;;;5.10;;
9698;SDS011;10089;47.876;8.346;2023-05-02T07:21:07;5.85;;;5.25;;
9698;SDS011;10089;47.876;8.346;2023-05-02T07:23:33;6.80;;;5.30;;
9698;SDS011;10089;47.876;8.346;2023-05-02T07:25:58;5.47;;;4.50;;
9698;SDS011;10089;47.876;8.346;2023-05-02T07:28:24;5.35;;;4.85;;
9698;SDS011;10089;47.876;8.346;2023-05-02T07:30:50;4.38;;;3.97;;
9698;SDS011;10089;47.876;8.346;2023-05-02T07:33:16;4.47;;;4.07;;
9698;SDS011;10089;47.876;8.346;2023-05-02T07:35:42;4.88;;;4.07;;
9698;SDS011;10089;47.876;8.346;2023-05-02T07:38:07;3.90;;;3.50;;
9698;SDS011;10089;47.876;8.346;2023-05-02T07:40:33;4.95;;;4.03;;
9698;SDS011;10089;47.876;8.346;2023-05-02T07:43:02;3.88;;;3.28;;
9698;SDS011;10089;47.876;8.346;2023-05-02T07:45:28;3.78;;;3.17;;
9698;SDS011;10089;47.876;8.346;2023-05-02T07:47:53;4.00;;;3.50;;
9698;SDS011;10089;47.876;8.346;2023-05-02T07:50:19;3.63;;;3.33;;
9698;SDS011;10089;47.876;8.346;2023-05-02T07:52:45;7.25;;;3.50;;
9698;SDS011;10089;47.876;8.346;2023-05-02T07:55:11;3.42;;;2.95;;
9698;SDS011;10089;47.876;8.346;2023-05-02T07:57:36;3.85;;;3.08;;
9698;SDS011;10089;47.876;8.346;2023-05-02T08:00:03;3.42;;;2.78;;
9698;SDS011;10089;47.876;8.346;2023-05-02T08:02:31;4.45;;;3.38;;
9698;SDS011;10089;47.876;8.346;2023-05-02T08:04:57;3.50;;;3.20;;
9698;SDS011;10089;47.876;8.346;2023-05-02T08:07:23;4.57;;;2.95;;
9698;SDS011;10089;47.876;8.346;2023-05-02T08:09:49;3.30;;;2.85;;
9698;SDS011;10089;47.876;8.346;2023-05-02T08:12:15;4.03;;;3.08;;
9698;SDS011;10089;47.876;8.346;2023-05-02T08:14:40;4.65;;;3.17;;
9698;SDS011;10089;47.876;8.346;2023-05-02T08:17:06;4.38;;;3.05;;
9698;SDS011;10089;47.876;8.346;2023-05-02T08:19:32;3.72;;;2.90;;
9698;SDS011;10089;47.876;8.346;2023-05-02T08:21:57;4.30;;;2.90;;
9698;SDS011;10089;47.876;8.346;2023-05-02T08:24:23;3.63;;;2.85;;
9698;SDS011;10089;47.876;8.346;2023-05-02T08:26:49;4.47;;;3.22;;
9698;SDS011;10089;47.876;8.346;2023-05-02T08:29:15;3.72;;;3.42;;
9698;SDS011;10089;47.876;8.346;2023-05-02T08:31:41;5.38;;;2.78;;
9698;SDS011;10089;47.876;8.346;2023-05-02T08:34:06;3.22;;;2.92;;
9698;SDS011;10089;47.876;8.346;2023-05-02T08:36:32;3.25;;;2.90;;
9698;SDS011;10089;47.876;8.346;2023-05-02T08:38:58;4.00;;;2.65;;
9698;SDS011;10089;47.876;8.346;2023-05-02T08:41:24;4.47;;;2.60;;
9698;SDS011;10089;47.876;8.346;2023-05-02T08:43:53;5.45;;;2.90;;
9698;SDS011;10089;47.876;8.346;2023-05-02T08:46:20;3.17;;;2.88;;
9698;SDS011;10089;47.876;8.346;2023-05-02T08:48:47;4.18;;;3.03;;
9698;SDS011;10089;47.876;8.346;2023-05-02T08:51:14;3.75;;;3.20;;
9698;SDS011;10089;47.876;8.346;2023-05-02T08:53:41;4.65;;;3.60;;
9698;SDS011;10089;47.876;8.346;2023-05-02T08:56:08;8.43;;;3.50;;
9698;SDS011;10089;47.876;8.346;2023-05-02T08:58:35;4.50;;;3.47;;
9698;SDS011;10089;47.876;8.346;2023-05-02T09:01:12;3.50;;;3.20;;
9698;SDS011;10089;47.876;8.346;2023-05-02T09:03:42;5.88;;;4.15;;
9698;SDS011;10089;47.876;8.346;2023-05-02T09:06:10;3.92;;;3.53;;
9698;SDS011;10089;47.876;8.346;2023-05-02T09:08:54;6.47;;;3.97;;
9698;SDS011;10089;47.876;8.346;2023-05-02T09:11:24;6.72;;;4.30;;
9698;SDS011;10089;47.876;8.346;2023-05-02T09:13:50;4.45;;;4.05;;
9698;SDS011;10089;47.876;8.346;2023-05-02T09:16:17;6.28;;;4.60;;
9698;SDS011;10089;47.876;8.346;2023-05-02T09:18:49;4.68;;;3.88;;
9698;SDS011;10089;47.876;8.346;2023-05-02T09:21:17;5.82;;;3.78;;
9698;SDS011;10089;47.876;8.346;2023-05-02T09:23:48;5.40;;;4.32;;
9698;SDS011;10089;47.876;8.346;2023-05-02T09:28:51;5.13;;;3.17;;
9698;SDS011;10089;47.876;8.346;2023-05-02T09:31:18;3.90;;;3.28;;
9698;SDS011;10089;47.876;8.346;2023-05-02T09:33:45;5.20;;;3.30;;
9698;SDS011;10089;47.876;8.346;2023-05-02T09:36:15;3.97;;;3.28;;
9698;SDS011;10089;47.876;8.346;2023-05-02T09:38:43;4.97;;;3.40;;
9698;SDS011;10089;47.876;8.346;2023-05-02T09:41:11;4.80;;;3.28;;
9698;SDS011;10089;47.876;8.346;2023-05-02T09:43:37;3.90;;;3.40;;
9698;SDS011;10089;47.876;8.346;2023-05-02T09:46:05;3.83;;;3.30;;
9698;SDS011;10089;47.876;8.346;2023-05-02T09:48:52;4.60;;;3.20;;
9698;SDS011;10089;47.876;8.346;2023-05-02T09:51:19;3.90;;;3.50;;
9698;SDS011;10089;47.876;8.346;2023-05-02T09:53:46;4.03;;;3.38;;
9698;SDS011;10089;47.876;8.346;2023-05-02T09:56:12;5.20;;;4.05;;
9698;SDS011;10089;47.876;8.346;2023-05-02T09:58:38;5.18;;;3.83;;
9698;SDS011;10089;47.876;8.346;2023-05-02T10:01:04;4.00;;;3.65;;
9698;SDS011;10089;47.876;8.346;2023-05-02T10:03:30;4.30;;;3.90;;
9698;SDS011;10089;47.876;8.346;2023-05-02T10:05:58;4.78;;;4.07;;
9698;SDS011;10089;47.876;8.346;2023-05-02T10:08:25;4.88;;;3.70;;
9698;SDS011;10089;47.876;8.346;2023-05-02T10:10:53;4.82;;;3.70;;
9698;SDS011;10089;47.876;8.346;2023-05-02T10:13:21;5.05;;;4.07;;
9698;SDS011;10089;47.876;8.346;2023-05-02T10:15:58;4.22;;;3.83;;
9698;SDS011;10089;47.876;8.346;2023-05-02T10:18:47;3.65;;;3.08;;
9698;SDS011;10089;47.876;8.346;2023-05-02T10:21:24;5.00;;;3.78;;
9698;SDS011;10089;47.876;8.346;2023-05-02T10:23:54;5.15;;;4.32;;
9698;SDS011;10089;47.876;8.346;2023-05-02T10:26:20;3.85;;;3.55;;
9698;SDS011;10089;47.876;8.346;2023-05-02T10:28:47;4.22;;;3.47;;
9698;SDS011;10089;47.876;8.346;2023-05-02T10:31:15;3.90;;;3.50;;
9698;SDS011;10089;47.876;8.346;2023-05-02T10:33:42;3.97;;;3.60;;
9698;SDS011;10089;47.876;8.346;2023-05-02T10:36:09;3.90;;;3.53;;
9698;SDS011;10089;47.876;8.346;2023-05-02T10:38:39;5.20;;;4.47;;
9698;SDS011;10089;47.876;8.346;2023-05-02T10:41:09;4.97;;;4.47;;
9698;SDS011;10089;47.876;8.346;2023-05-02T10:43:39;6.30;;;4.53;;
9698;SDS011;10089;47.876;8.346;2023-05-02T10:46:29;6.13;;;4.43;;
9698;SDS011;10089;47.876;8.346;2023-05-02T10:48:59;4.93;;;4.43;;
9698;SDS011;10089;47.876;8.346;2023-05-02T10:51:29;10.23;;;4.50;;
9698;SDS011;10089;47.876;8.346;2023-05-02T10:54:31;5.07;;;4.57;;
9698;SDS011;10089;47.876;8.346;2023-05-02T11:04:57;5.60;;;4.88;;
9698;SDS011;10089;47.876;8.346;2023-05-02T11:07:31;5.43;;;4.82;;
9698;SDS011;10089;47.876;8.346;2023-05-02T11:12:50;5.90;;;4.82;;
9698;SDS011;10089;47.876;8.346;2023-05-02T11:20:28;4.68;;;4.28;;
9698;SDS011;10089;47.876;8.346;2023-05-02T11:22:55;4.65;;;4.20;;
9698;SDS011;10089;47.876;8.346;2023-05-02T11:25:32;4.50;;;4.10;;
9698;SDS011;10089;47.876;8.346;2023-05-02T11:28:00;4.95;;;4.05;;
9698;SDS011;10089;47.876;8.346;2023-05-02T11:30:41;4.75;;;4.30;;
9698;SDS011;10089;47.876;8.346;2023-05-02T11:35:36;4.78;;;4.00;;
9698;SDS011;10089;47.876;8.346;2023-05-02T11:38:10;4.88;;;4.45;;
9698;SDS011;10089;47.876;8.346;2023-05-02T11:40:37;5.90;;;4.47;;
9698;SDS011;10089;47.876;8.346;2023-05-02T11:43:13;7.38;;;4.25;;
9698;SDS011;10089;47.876;8.346;2023-05-02T11:45:40;6.35;;;5.25;;
9698;SDS011;10089;47.876;8.346;2023-05-02T11:48:07;5.53;;;4.57;;
9698;SDS011;10089;47.876;8.346;2023-05-02T11:50:44;4.80;;;4.30;;
9698;SDS011;10089;47.876;8.346;2023-05-02T11:53:12;10.45;;;5.45;;
9698;SDS011;10089;47.876;8.346;2023-05-02T11:55:48;5.40;;;4.90;;
9698;SDS011;10089;47.876;8.346;2023-05-02T11:58:19;6.18;;;5.57;;
9698;SDS011;10089;47.876;8.346;2023-05-02T12:00:46;5.80;;;5.05;;
9698;SDS011;10089;47.876;8.346;2023-05-02T12:03:20;8.82;;;5.30;;
9698;SDS011;10089;47.876;8.346;2023-05-02T12:05:53;9.13;;;5.65;;
9698;SDS011;10089;47.876;8.346;2023-05-02T12:10:54;5.88;;;5.28;;
9698;SDS011;10089;47.876;8.346;2023-05-02T12:13:21;7.00;;;5.68;;
9698;SDS011;10089;47.876;8.346;2023-05-02T12:15:49;5.97;;;5.35;;
9698;SDS011;10089;47.876;8.346;2023-05-02T12:18:16;6.97;;;5.68;;
9698;SDS011;10089;47.876;8.346;2023-05-02T12:20:43;5.60;;;5.00;;
9698;SDS011;10089;47.876;8.346;2023-05-02T12:23:10;8.20;;;5.15;;
9698;SDS011;10089;47.876;8.346;2023-05-02T12:25:37;5.55;;;4.80;;
9698;SDS011;10089;47.876;8.346;2023-05-02T12:28:04;5.15;;;4.68;;
9698;SDS011;10089;47.876;8.346;2023-05-02T12:30:30;5.32;;;4.05;;
9698;SDS011;10089;47.876;8.346;2023-05-02T12:32:57;6.07;;;5.47;;
9698;SDS011;10089;47.876;8.346;2023-05-02T12:35:25;7.78;;;5.90;;
9698;SDS011;10089;47.876;8.346;2023-05-02T12:37:52;8.55;;;5.47;;
9698;SDS011;10089;47.876;8.346;2023-05-02T12:40:21;5.78;;;5.18;;
9698;SDS011;10089;47.876;8.346;2023-05-02T12:42:57;5.07;;;4.40;;
9698;SDS011;10089;47.876;8.346;2023-05-02T12:45:28;5.93;;;4.32;;
9698;SDS011;10089;47.876;8.346;2023-05-02T12:48:01;5.43;;;4.57;;
9698;SDS011;10089;47.876;8.346;2023-05-02T12:50:46;7.45;;;5.18;;
9698;SDS011;10089;47.876;8.346;2023-05-02T12:53:12;5.85;;;5.25;;
9698;SDS011;10089;47.876;8.346;2023-05-02T12:55:38;9.15;;;5.90;;
9698;SDS011;10089;47.876;8.346;2023-05-02T12:58:08;8.57;;;6.05;;
9698;SDS011;10089;47.876;8.346;2023-05-02T13:00:38;5.75;;;5.15;;
9698;SDS011;10089;47.876;8.346;2023-05-02T13:03:05;5.32;;;4.53;;
9698;SDS011;10089;47.876;8.346;2023-05-02T13:05:32;5.82;;;4.60;;
9698;SDS011;10089;47.876;8.346;2023-05-02T13:07:58;5.28;;;4.50;;
9698;SDS011;10089;47.876;8.346;2023-05-02T13:10:25;6.00;;;5.40;;
9698;SDS011;10089;47.876;8.346;2023-05-02T13:12:52;5.78;;;4.45;;
9698;SDS011;10089;47.876;8.346;2023-05-02T13:15:18;7.88;;;4.95;;
9698;SDS011;10089;47.876;8.346;2023-05-02T13:17:44;6.32;;;5.72;;
9698;SDS011;10089;47.876;8.346;2023-05-02T13:20:11;8.75;;;6.07;;
9698;SDS011;10089;47.876;8.346;2023-05-02T13:22:37;10.30;;;6.50;;
9698;SDS011;10089;47.876;8.346;2023-05-02T13:25:06;8.30;;;5.97;;
9698;SDS011;10089;47.876;8.346;2023-05-02T13:27:33;7.22;;;6.35;;
9698;SDS011;10089;47.876;8.346;2023-05-02T13:29:59;6.40;;;5.80;;
9698;SDS011;10089;47.876;8.346;2023-05-02T13:32:28;8.82;;;6.43;;
9698;SDS011;10089;47.876;8.346;2023-05-02T13:34:54;6.22;;;5.47;;
9698;SDS011;10089;47.876;8.346;2023-05-02T13:37:20;7.05;;;5.50;;
9698;SDS011;10089;47.876;8.346;2023-05-02T13:39:45;8.63;;;5.32;;
9698;SDS011;10089;47.876;8.346;2023-05-02T13:42:12;6.18;;;4.93;;
9698;SDS011;10089;47.876;8.346;2023-05-02T13:44:37;4.85;;;4.35;;
9698;SDS011;10089;47.876;8.346;2023-05-02T13:47:03;4.75;;;4.20;;
9698;SDS011;10089;47.876;8.346;2023-05-02T13:49:29;5.20;;;3.75;;
9698;SDS011;10089;47.876;8.346;2023-05-02T13:51:55;5.35;;;4.85;;
9698;SDS011;10089;47.876;8.346;2023-05-02T13:54:21;5.80;;;4.88;;
9698;SDS011;10089;47.876;8.346;2023-05-02T13:56:47;5.68;;;4.53;;
9698;SDS011;10089;47.876;8.346;2023-05-02T13:59:12;8.40;;;5.00;;
9698;SDS011;10089;47.876;8.346;2023-05-02T14:01:38;6.10;;;4.78;;
9698;SDS011;10089;47.876;8.346;2023-05-02T14:04:05;5.20;;;4.10;;
9698;SDS011;10089;47.876;8.346;2023-05-02T14:06:33;5.60;;;4.53;;
9698;SDS011;10089;47.876;8.346;2023-05-02T14:08:59;8.55;;;4.95;;
9698;SDS011;10089;47.876;8.346;2023-05-02T14:11:25;6.03;;;4.78;;
9698;SDS011;10089;47.876;8.346;2023-05-02T14:13:51;8.10;;;5.40;;
9698;SDS011;10089;47.876;8.346;2023-05-02T14:16:17;6.35;;;5.20;;
9698;SDS011;10089;47.876;8.346;2023-05-02T14:18:43;6.20;;;5.32;;
9698;SDS011;10089;47.876;8.346;2023-05-02T14:21:09;5.57;;;4.97;;
9698;SDS011;10089;47.876;8.346;2023-05-02T14:23:35;5.80;;;5.20;;
9698;SDS011;10089;47.876;8.346;2023-05-02T14:26:01;5.88;;;5.28;;
9698;SDS011;10089;47.876;8.346;2023-05-02T14:28:28;7.97;;;5.03;;
9698;SDS011;10089;47.876;8.346;2023-05-02T14:30:53;5.75;;;4.78;;
9698;SDS011;10089;47.876;8.346;2023-05-02T14:33:19;5.10;;;4.60;;
9698;SDS011;10089;47.876;8.346;2023-05-02T14:35:45;5.57;;;4.97;;
9698;SDS011;10089;47.876;8.346;2023-05-02T14:38:11;5.20;;;4.38;;
9698;SDS011;10089;47.876;8.346;2023-05-02T14:40:37;9.80;;;6.93;;
9698;SDS011;10089;47.876;8.346;2023-05-02T14:43:02;35.40;;;16.65;;
9698;SDS011;10089;47.876;8.346;2023-05-02T14:45:28;25.23;;;13.07;;
9698;SDS011;10089;47.876;8.346;2023-05-02T14:47:54;7.07;;;5.80;;
9698;SDS011;10089;47.876;8.346;2023-05-02T14:50:21;5.22;;;4.18;;
9698;SDS011;10089;47.876;8.346;2023-05-02T14:52:47;4.97;;;3.90;;
9698;SDS011;10089;47.876;8.346;2023-05-02T14:55:13;3.83;;;3.30;;
9698;SDS011;10089;47.876;8.346;2023-05-02T14:57:39;3.90;;;3.45;;
9698;SDS011;10089;47.876;8.346;2023-05-02T15:00:06;3.92;;;3.15;;
9698;SDS011;10089;47.876;8.346;2023-05-02T15:02:32;4.13;;;3.33;;
9698;SDS011;10089;47.876;8.346;2023-05-02T15:04:58;3.33;;;2.70;;
9698;SDS011;10089;47.876;8.346;2023-05-02T15:07:24;2.97;;;2.40;;
9698;SDS011;10089;47.876;8.346;2023-05-02T15:09:51;4.43;;;2.80;;
9698;SDS011;10089;47.876;8.346;2023-05-02T15:12:17;3.75;;;2.63;;
9698;SDS011;10089;47.876;8.346;2023-05-02T15:14:43;3.03;;;2.03;;
9698;SDS011;10089;47.876;8.346;2023-05-02T15:17:09;2.40;;;2.20;;
9698;SDS011;10089;47.876;8.346;2023-05-02T15:19:34;2.28;;;2.00;;
9698;SDS011;10089;47.876;8.346;2023-05-02T15:22:00;3.10;;;1.90;;
9698;SDS011;10089;47.876;8.346;2023-05-02T15:24:26;2.20;;;2.00;;
9698;SDS011;10089;47.876;8.346;2023-05-02T15:26:52;2.05;;;1.75;;
9698;SDS011;10089;47.876;8.346;2023-05-02T15:29:18;3.55;;;2.30;;
9698;SDS011;10089;47.876;8.346;2023-05-02T15:31:44;2.53;;;2.22;;
9698;SDS011;10089;47.876;8.346;2023-05-02T15:34:10;2.17;;;1.92;;
9698;SDS011;10089;47.876;8.346;2023-05-02T15:36:36;3.55;;;2.47;;
9698;SDS011;10089;47.876;8.346;2023-05-02T15:39:05;2.53;;;2.20;;
9698;SDS011;10089;47.876;8.346;2023-05-02T15:41:31;2.97;;;2.67;;
9698;SDS011;10089;47.876;8.346;2023-05-02T15:43:57;2.80;;;1.95;;
9698;SDS011;10089;47.876;8.346;2023-05-02T15:46:23;3.10;;;2.80;;